sensor_id;sensor_type;location;lat;lon;timestamp;P1;durP1;ratioP1;P2;durP2;ratioP2
5085;SDS011;4715;51.660;7.082;2023-06-22T00:02:05;2.60;;;2.50;;
5085;SDS011;4715;51.660;7.082;2023-06-22T00:04:28;2.17;;;2.07;;
5085;SDS011;4715;51.660;7.082;2023-06-22T00:06:55;2.50;;;2.40;;
5085;SDS011;4715;51.660;7.082;2023-06-22T00:09:17;2.60;;;2.50;;
5085;SDS011;4715;51.660;7.082;2023-06-22T00:11:42;2.40;;;2.30;;
5085;SDS011;4715;51.660;7.082;2023-06-22T00:14:05;3.10;;;2.40;;
5085;SDS011;4715;51.660;7.082;2023-06-22T00:16:28;2.30;;;2.10;;
5085;SDS011;4715;51.660;7.082;2023-06-22T00:18:52;2.23;;;2.13;;
5085;SDS011;4715;51.660;7.082;2023-06-22T00:21:16;2.47;;;2.37;;
5085;SDS011;4715;51.660;7.082;2023-06-22T00:23:41;2.30;;;2.20;;
5085;SDS011;4715;51.660;7.082;2023-06-22T00:26:03;2.70;;;2.50;;
5085;SDS011;4715;51.660;7.082;2023-06-22T00:28:25;2.00;;;1.90;;
5085;SDS011;4715;51.660;7.082;2023-06-22T00:30:49;2.90;;;2.70;;
5085;SDS011;4715;51.660;7.082;2023-06-22T00:33:11;2.13;;;2.03;;
5085;SDS011;4715;51.660;7.082;2023-06-22T00:35:36;1.90;;;1.80;;
5085;SDS011;4715;51.660;7.082;2023-06-22T00:38:06;2.30;;;2.17;;
5085;SDS011;4715;51.660;7.082;2023-06-22T00:40:31;2.23;;;2.10;;
5085;SDS011;4715;51.660;7.082;2023-06-22T00:42:54;2.00;;;1.90;;
5085;SDS011;4715;51.660;7.082;2023-06-22T00:45:22;2.40;;;2.20;;
5085;SDS011;4715;51.660;7.082;2023-06-22T00:47:46;2.47;;;2.07;;
5085;SDS011;4715;51.660;7.082;2023-06-22T00:50:08;2.37;;;2.27;;
5085;SDS011;4715;51.660;7.082;2023-06-22T00:52:33;2.73;;;2.10;;
5085;SDS011;4715;51.660;7.082;2023-06-22T00:54:58;2.10;;;2.00;;
5085;SDS011;4715;51.660;7.082;2023-06-22T00:57:27;2.60;;;2.50;;
5085;SDS011;4715;51.660;7.082;2023-06-22T00:59:49;2.50;;;2.30;;
5085;SDS011;4715;51.660;7.082;2023-06-22T01:02:13;2.10;;;2.00;;
5085;SDS011;4715;51.660;7.082;2023-06-22T01:04:36;2.67;;;2.50;;
5085;SDS011;4715;51.660;7.082;2023-06-22T01:07:01;2.70;;;2.60;;
5085;SDS011;4715;51.660;7.082;2023-06-22T01:09:35;2.73;;;2.50;;
5085;SDS011;4715;51.660;7.082;2023-06-22T01:12:05;2.50;;;2.40;;
5085;SDS011;4715;51.660;7.082;2023-06-22T01:14:32;2.57;;;2.47;;
5085;SDS011;4715;51.660;7.082;2023-06-22T01:17:12;2.53;;;2.43;;
5085;SDS011;4715;51.660;7.082;2023-06-22T01:19:43;2.23;;;2.07;;
5085;SDS011;4715;51.660;7.082;2023-06-22T01:22:07;2.33;;;2.13;;
5085;SDS011;4715;51.660;7.082;2023-06-22T01:24:39;2.30;;;2.10;;
5085;SDS011;4715;51.660;7.082;2023-06-22T01:27:12;2.60;;;2.40;;
5085;SDS011;4715;51.660;7.082;2023-06-22T01:29:43;2.30;;;2.20;;
5085;SDS011;4715;51.660;7.082;2023-06-22T01:32:06;2.67;;;2.57;;
5085;SDS011;4715;51.660;7.082;2023-06-22T01:34:29;2.50;;;2.40;;
5085;SDS011;4715;51.660;7.082;2023-06-22T01:36:53;2.50;;;2.40;;
5085;SDS011;4715;51.660;7.082;2023-06-22T01:39:15;2.30;;;2.20;;
5085;SDS011;4715;51.660;7.082;2023-06-22T01:41:37;2.40;;;2.30;;
5085;SDS011;4715;51.660;7.082;2023-06-22T01:44:00;2.27;;;2.10;;
5085;SDS011;4715;51.660;7.082;2023-06-22T01:46:24;2.40;;;2.20;;
5085;SDS011;4715;51.660;7.082;2023-06-22T01:48:46;2.33;;;2.23;;
5085;SDS011;4715;51.660;7.082;2023-06-22T01:51:08;2.30;;;2.20;;
5085;SDS011;4715;51.660;7.082;2023-06-22T01:53:31;2.73;;;2.53;;
5085;SDS011;4715;51.660;7.082;2023-06-22T01:55:53;2.70;;;2.50;;
5085;SDS011;4715;51.660;7.082;2023-06-22T01:58:14;2.80;;;2.70;;
5085;SDS011;4715;51.660;7.082;2023-06-22T02:00:37;2.20;;;2.10;;
5085;SDS011;4715;51.660;7.082;2023-06-22T02:03:05;4.23;;;2.57;;
5085;SDS011;4715;51.660;7.082;2023-06-22T02:05:33;2.60;;;2.50;;
5085;SDS011;4715;51.660;7.082;2023-06-22T02:08:00;2.63;;;2.43;;
5085;SDS011;4715;51.660;7.082;2023-06-22T02:10:28;2.33;;;2.23;;
5085;SDS011;4715;51.660;7.082;2023-06-22T02:12:53;2.53;;;2.43;;
5085;SDS011;4715;51.660;7.082;2023-06-22T02:15:15;2.30;;;2.20;;
5085;SDS011;4715;51.660;7.082;2023-06-22T02:17:38;2.20;;;2.10;;
5085;SDS011;4715;51.660;7.082;2023-06-22T02:20:06;2.30;;;2.20;;
5085;SDS011;4715;51.660;7.082;2023-06-22T02:22:34;2.77;;;2.67;;
5085;SDS011;4715;51.660;7.082;2023-06-22T02:24:56;2.83;;;2.63;;
5085;SDS011;4715;51.660;7.082;2023-06-22T02:27:18;3.13;;;2.93;;
5085;SDS011;4715;51.660;7.082;2023-06-22T02:29:40;2.33;;;2.23;;
5085;SDS011;4715;51.660;7.082;2023-06-22T02:32:02;2.53;;;2.17;;
5085;SDS011;4715;51.660;7.082;2023-06-22T02:34:25;2.70;;;2.50;;
5085;SDS011;4715;51.660;7.082;2023-06-22T02:36:48;2.57;;;2.47;;
5085;SDS011;4715;51.660;7.082;2023-06-22T02:39:11;2.57;;;2.43;;
5085;SDS011;4715;51.660;7.082;2023-06-22T02:41:33;2.67;;;2.47;;
5085;SDS011;4715;51.660;7.082;2023-06-22T02:43:55;2.70;;;2.60;;
5085;SDS011;4715;51.660;7.082;2023-06-22T02:46:17;2.30;;;2.20;;
5085;SDS011;4715;51.660;7.082;2023-06-22T02:48:39;2.90;;;2.70;;
5085;SDS011;4715;51.660;7.082;2023-06-22T02:51:01;2.97;;;2.87;;
5085;SDS011;4715;51.660;7.082;2023-06-22T02:53:24;2.60;;;2.50;;
5085;SDS011;4715;51.660;7.082;2023-06-22T02:55:46;2.40;;;2.30;;
5085;SDS011;4715;51.660;7.082;2023-06-22T02:58:07;3.00;;;2.80;;
5085;SDS011;4715;51.660;7.082;2023-06-22T03:00:29;2.40;;;2.30;;
5085;SDS011;4715;51.660;7.082;2023-06-22T03:02:51;2.50;;;2.40;;
5085;SDS011;4715;51.660;7.082;2023-06-22T03:05:13;2.90;;;2.70;;
5085;SDS011;4715;51.660;7.082;2023-06-22T03:07:38;3.50;;;3.20;;
5085;SDS011;4715;51.660;7.082;2023-06-22T03:10:01;3.00;;;2.80;;
5085;SDS011;4715;51.660;7.082;2023-06-22T03:12:23;3.27;;;3.07;;
5085;SDS011;4715;51.660;7.082;2023-06-22T03:14:45;3.53;;;3.33;;
5085;SDS011;4715;51.660;7.082;2023-06-22T03:17:07;4.00;;;3.70;;
5085;SDS011;4715;51.660;7.082;2023-06-22T03:19:29;3.37;;;3.17;;
5085;SDS011;4715;51.660;7.082;2023-06-22T03:21:51;3.33;;;3.13;;
5085;SDS011;4715;51.660;7.082;2023-06-22T03:24:13;3.63;;;3.33;;
5085;SDS011;4715;51.660;7.082;2023-06-22T03:26:36;3.57;;;3.27;;
5085;SDS011;4715;51.660;7.082;2023-06-22T03:28:58;3.67;;;3.47;;
5085;SDS011;4715;51.660;7.082;2023-06-22T03:31:19;3.13;;;2.93;;
5085;SDS011;4715;51.660;7.082;2023-06-22T03:33:42;4.23;;;3.97;;
5085;SDS011;4715;51.660;7.082;2023-06-22T03:36:03;3.33;;;3.13;;
5085;SDS011;4715;51.660;7.082;2023-06-22T03:38:25;3.40;;;3.20;;
5085;SDS011;4715;51.660;7.082;2023-06-22T03:40:47;3.50;;;3.27;;
5085;SDS011;4715;51.660;7.082;2023-06-22T03:43:10;2.30;;;2.20;;
5085;SDS011;4715;51.660;7.082;2023-06-22T03:45:32;3.20;;;3.10;;
5085;SDS011;4715;51.660;7.082;2023-06-22T03:47:54;3.00;;;2.80;;
5085;SDS011;4715;51.660;7.082;2023-06-22T03:50:16;3.10;;;2.90;;
5085;SDS011;4715;51.660;7.082;2023-06-22T03:52:40;3.30;;;3.10;;
5085;SDS011;4715;51.660;7.082;2023-06-22T03:55:02;3.30;;;3.10;;
5085;SDS011;4715;51.660;7.082;2023-06-22T03:57:25;2.63;;;2.53;;
5085;SDS011;4715;51.660;7.082;2023-06-22T03:59:48;3.17;;;2.97;;
5085;SDS011;4715;51.660;7.082;2023-06-22T04:02:10;3.97;;;3.70;;
5085;SDS011;4715;51.660;7.082;2023-06-22T04:04:32;3.37;;;3.17;;
5085;SDS011;4715;51.660;7.082;2023-06-22T04:06:55;3.93;;;3.73;;
5085;SDS011;4715;51.660;7.082;2023-06-22T04:09:17;3.70;;;3.40;;
5085;SDS011;4715;51.660;7.082;2023-06-22T04:11:39;4.30;;;4.00;;
5085;SDS011;4715;51.660;7.082;2023-06-22T04:14:00;4.37;;;4.07;;
5085;SDS011;4715;51.660;7.082;2023-06-22T04:16:24;3.97;;;3.67;;
5085;SDS011;4715;51.660;7.082;2023-06-22T04:18:45;3.53;;;3.30;;
5085;SDS011;4715;51.660;7.082;2023-06-22T04:21:07;4.13;;;3.83;;
5085;SDS011;4715;51.660;7.082;2023-06-22T04:23:29;3.77;;;3.57;;
5085;SDS011;4715;51.660;7.082;2023-06-22T04:25:51;4.80;;;4.43;;
5085;SDS011;4715;51.660;7.082;2023-06-22T04:28:13;4.33;;;4.03;;
5085;SDS011;4715;51.660;7.082;2023-06-22T04:30:35;4.40;;;4.10;;
5085;SDS011;4715;51.660;7.082;2023-06-22T04:33:01;4.10;;;3.90;;
5085;SDS011;4715;51.660;7.082;2023-06-22T04:35:23;4.80;;;4.20;;
5085;SDS011;4715;51.660;7.082;2023-06-22T04:37:45;4.90;;;4.47;;
5085;SDS011;4715;51.660;7.082;2023-06-22T04:40:09;5.43;;;5.00;;
5085;SDS011;4715;51.660;7.082;2023-06-22T04:42:34;4.83;;;4.53;;
5085;SDS011;4715;51.660;7.082;2023-06-22T04:44:56;5.50;;;5.10;;
5085;SDS011;4715;51.660;7.082;2023-06-22T04:47:18;4.80;;;4.50;;
5085;SDS011;4715;51.660;7.082;2023-06-22T04:49:42;4.80;;;4.50;;
5085;SDS011;4715;51.660;7.082;2023-06-22T04:52:04;5.17;;;4.77;;
5085;SDS011;4715;51.660;7.082;2023-06-22T04:54:27;5.20;;;4.80;;
5085;SDS011;4715;51.660;7.082;2023-06-22T04:56:49;5.43;;;4.93;;
5085;SDS011;4715;51.660;7.082;2023-06-22T04:59:16;4.20;;;3.90;;
5085;SDS011;4715;51.660;7.082;2023-06-22T05:01:38;5.03;;;4.73;;
5085;SDS011;4715;51.660;7.082;2023-06-22T05:04:00;4.80;;;4.40;;
5085;SDS011;4715;51.660;7.082;2023-06-22T05:06:25;4.60;;;4.30;;
5085;SDS011;4715;51.660;7.082;2023-06-22T05:08:47;4.93;;;4.63;;
5085;SDS011;4715;51.660;7.082;2023-06-22T05:11:09;4.27;;;3.97;;
5085;SDS011;4715;51.660;7.082;2023-06-22T05:13:30;4.73;;;4.37;;
5085;SDS011;4715;51.660;7.082;2023-06-22T05:15:52;4.60;;;4.23;;
5085;SDS011;4715;51.660;7.082;2023-06-22T05:18:21;4.43;;;4.13;;
5085;SDS011;4715;51.660;7.082;2023-06-22T05:20:44;4.10;;;3.87;;
5085;SDS011;4715;51.660;7.082;2023-06-22T05:23:07;4.50;;;4.20;;
5085;SDS011;4715;51.660;7.082;2023-06-22T05:25:29;3.57;;;3.37;;
5085;SDS011;4715;51.660;7.082;2023-06-22T05:27:52;3.57;;;3.27;;
5085;SDS011;4715;51.660;7.082;2023-06-22T05:30:14;3.63;;;3.43;;
5085;SDS011;4715;51.660;7.082;2023-06-22T05:32:46;3.77;;;3.57;;
5085;SDS011;4715;51.660;7.082;2023-06-22T05:35:09;5.50;;;4.40;;
5085;SDS011;4715;51.660;7.082;2023-06-22T05:37:31;3.50;;;3.30;;
5085;SDS011;4715;51.660;7.082;2023-06-22T05:39:54;3.40;;;3.20;;
5085;SDS011;4715;51.660;7.082;2023-06-22T05:42:18;3.50;;;3.30;;
5085;SDS011;4715;51.660;7.082;2023-06-22T05:44:41;3.70;;;3.50;;
5085;SDS011;4715;51.660;7.082;2023-06-22T05:47:17;3.77;;;3.57;;
5085;SDS011;4715;51.660;7.082;2023-06-22T05:49:39;4.03;;;3.83;;
5085;SDS011;4715;51.660;7.082;2023-06-22T05:52:01;3.83;;;3.60;;
5085;SDS011;4715;51.660;7.082;2023-06-22T05:54:23;3.43;;;3.23;;
5085;SDS011;4715;51.660;7.082;2023-06-22T05:56:46;3.70;;;3.50;;
5085;SDS011;4715;51.660;7.082;2023-06-22T05:59:08;3.40;;;3.20;;
5085;SDS011;4715;51.660;7.082;2023-06-22T06:01:30;3.30;;;3.10;;
5085;SDS011;4715;51.660;7.082;2023-06-22T06:03:54;2.97;;;2.80;;
5085;SDS011;4715;51.660;7.082;2023-06-22T06:06:17;3.37;;;3.17;;
5085;SDS011;4715;51.660;7.082;2023-06-22T06:08:41;3.33;;;3.13;;
5085;SDS011;4715;51.660;7.082;2023-06-22T06:11:03;3.57;;;3.37;;
5085;SDS011;4715;51.660;7.082;2023-06-22T06:13:27;4.70;;;4.40;;
5085;SDS011;4715;51.660;7.082;2023-06-22T06:15:49;3.80;;;3.60;;
5085;SDS011;4715;51.660;7.082;2023-06-22T06:18:11;5.30;;;4.17;;
5085;SDS011;4715;51.660;7.082;2023-06-22T06:20:37;4.17;;;3.87;;
5085;SDS011;4715;51.660;7.082;2023-06-22T06:22:59;4.00;;;3.80;;
5085;SDS011;4715;51.660;7.082;2023-06-22T06:25:20;4.23;;;4.03;;
5085;SDS011;4715;51.660;7.082;2023-06-22T06:27:44;3.87;;;3.67;;
5085;SDS011;4715;51.660;7.082;2023-06-22T06:30:09;4.47;;;4.17;;
5085;SDS011;4715;51.660;7.082;2023-06-22T06:32:31;4.47;;;4.17;;
5085;SDS011;4715;51.660;7.082;2023-06-22T06:34:53;5.43;;;5.07;;
5085;SDS011;4715;51.660;7.082;2023-06-22T06:37:16;4.93;;;4.63;;
5085;SDS011;4715;51.660;7.082;2023-06-22T06:39:38;3.97;;;3.67;;
5085;SDS011;4715;51.660;7.082;2023-06-22T06:42:00;5.77;;;5.27;;
5085;SDS011;4715;51.660;7.082;2023-06-22T06:44:22;5.00;;;4.70;;
5085;SDS011;4715;51.660;7.082;2023-06-22T06:46:45;4.20;;;4.00;;
5085;SDS011;4715;51.660;7.082;2023-06-22T06:49:07;3.83;;;3.53;;
5085;SDS011;4715;51.660;7.082;2023-06-22T06:51:30;4.10;;;3.83;;
5085;SDS011;4715;51.660;7.082;2023-06-22T06:53:52;4.13;;;3.93;;
5085;SDS011;4715;51.660;7.082;2023-06-22T06:56:13;4.53;;;4.23;;
5085;SDS011;4715;51.660;7.082;2023-06-22T06:58:35;4.30;;;4.00;;
5085;SDS011;4715;51.660;7.082;2023-06-22T07:00:57;4.20;;;4.00;;
5085;SDS011;4715;51.660;7.082;2023-06-22T07:03:21;4.57;;;4.20;;
5085;SDS011;4715;51.660;7.082;2023-06-22T07:05:44;4.57;;;4.27;;
5085;SDS011;4715;51.660;7.082;2023-06-22T07:08:09;4.40;;;4.10;;
5085;SDS011;4715;51.660;7.082;2023-06-22T07:10:31;4.60;;;4.30;;
5085;SDS011;4715;51.660;7.082;2023-06-22T07:12:53;5.13;;;4.73;;
5085;SDS011;4715;51.660;7.082;2023-06-22T07:15:15;4.73;;;4.43;;
5085;SDS011;4715;51.660;7.082;2023-06-22T07:17:38;5.53;;;5.13;;
5085;SDS011;4715;51.660;7.082;2023-06-22T07:20:03;5.47;;;5.00;;
5085;SDS011;4715;51.660;7.082;2023-06-22T07:22:28;4.90;;;4.60;;
5085;SDS011;4715;51.660;7.082;2023-06-22T07:24:50;4.30;;;4.00;;
5085;SDS011;4715;51.660;7.082;2023-06-22T07:27:12;4.10;;;3.80;;
5085;SDS011;4715;51.660;7.082;2023-06-22T07:29:39;4.60;;;4.30;;
5085;SDS011;4715;51.660;7.082;2023-06-22T07:32:02;5.13;;;4.73;;
5085;SDS011;4715;51.660;7.082;2023-06-22T07:34:25;5.20;;;4.80;;
5085;SDS011;4715;51.660;7.082;2023-06-22T07:36:48;5.03;;;4.63;;
5085;SDS011;4715;51.660;7.082;2023-06-22T07:39:12;4.37;;;4.07;;
5085;SDS011;4715;51.660;7.082;2023-06-22T07:41:34;5.27;;;4.90;;
5085;SDS011;4715;51.660;7.082;2023-06-22T07:43:56;4.97;;;4.67;;
5085;SDS011;4715;51.660;7.082;2023-06-22T07:46:18;5.10;;;4.77;;
5085;SDS011;4715;51.660;7.082;2023-06-22T07:48:40;4.33;;;4.03;;
5085;SDS011;4715;51.660;7.082;2023-06-22T07:51:03;4.70;;;4.37;;
5085;SDS011;4715;51.660;7.082;2023-06-22T07:53:28;4.43;;;4.13;;
5085;SDS011;4715;51.660;7.082;2023-06-22T07:55:50;4.07;;;3.87;;
5085;SDS011;4715;51.660;7.082;2023-06-22T07:58:12;5.10;;;4.80;;
5085;SDS011;4715;51.660;7.082;2023-06-22T08:00:34;5.13;;;4.63;;
5085;SDS011;4715;51.660;7.082;2023-06-22T08:02:56;4.60;;;4.30;;
5085;SDS011;4715;51.660;7.082;2023-06-22T08:05:17;4.93;;;4.53;;
5085;SDS011;4715;51.660;7.082;2023-06-22T08:07:39;5.20;;;4.80;;
5085;SDS011;4715;51.660;7.082;2023-06-22T08:10:08;5.50;;;5.10;;
5085;SDS011;4715;51.660;7.082;2023-06-22T08:12:32;5.40;;;5.00;;
5085;SDS011;4715;51.660;7.082;2023-06-22T08:14:54;5.00;;;4.70;;
5085;SDS011;4715;51.660;7.082;2023-06-22T08:17:16;6.03;;;5.20;;
5085;SDS011;4715;51.660;7.082;2023-06-22T08:19:39;4.80;;;4.50;;
5085;SDS011;4715;51.660;7.082;2023-06-22T08:22:01;5.60;;;5.20;;
5085;SDS011;4715;51.660;7.082;2023-06-22T08:24:23;6.00;;;5.50;;
5085;SDS011;4715;51.660;7.082;2023-06-22T08:26:46;6.30;;;5.80;;
5085;SDS011;4715;51.660;7.082;2023-06-22T08:29:08;6.10;;;5.70;;
5085;SDS011;4715;51.660;7.082;2023-06-22T08:31:31;5.53;;;5.13;;
5085;SDS011;4715;51.660;7.082;2023-06-22T08:33:57;6.00;;;5.60;;
5085;SDS011;4715;51.660;7.082;2023-06-22T08:36:22;5.27;;;4.77;;
5085;SDS011;4715;51.660;7.082;2023-06-22T08:38:49;5.23;;;4.83;;
5085;SDS011;4715;51.660;7.082;2023-06-22T08:41:11;5.30;;;5.00;;
5085;SDS011;4715;51.660;7.082;2023-06-22T08:43:35;6.53;;;5.23;;
5085;SDS011;4715;51.660;7.082;2023-06-22T08:45:57;6.27;;;5.77;;
5085;SDS011;4715;51.660;7.082;2023-06-22T08:48:19;5.40;;;5.10;;
5085;SDS011;4715;51.660;7.082;2023-06-22T08:50:41;6.00;;;5.60;;
5085;SDS011;4715;51.660;7.082;2023-06-22T08:53:03;5.00;;;4.70;;
5085;SDS011;4715;51.660;7.082;2023-06-22T08:55:25;5.40;;;5.03;;
5085;SDS011;4715;51.660;7.082;2023-06-22T08:57:47;6.60;;;6.10;;
5085;SDS011;4715;51.660;7.082;2023-06-22T09:00:11;6.20;;;5.70;;
5085;SDS011;4715;51.660;7.082;2023-06-22T09:02:37;5.93;;;5.53;;
5085;SDS011;4715;51.660;7.082;2023-06-22T09:05:03;5.80;;;5.27;;
5085;SDS011;4715;51.660;7.082;2023-06-22T09:07:25;5.57;;;5.17;;
5085;SDS011;4715;51.660;7.082;2023-06-22T09:09:47;4.87;;;4.57;;
5085;SDS011;4715;51.660;7.082;2023-06-22T09:12:09;5.97;;;5.50;;
5085;SDS011;4715;51.660;7.082;2023-06-22T09:14:31;5.70;;;5.30;;
5085;SDS011;4715;51.660;7.082;2023-06-22T09:16:55;6.00;;;5.57;;
5085;SDS011;4715;51.660;7.082;2023-06-22T09:19:17;7.07;;;6.47;;
5085;SDS011;4715;51.660;7.082;2023-06-22T09:21:39;5.90;;;5.50;;
5085;SDS011;4715;51.660;7.082;2023-06-22T09:24:06;5.50;;;5.13;;
5085;SDS011;4715;51.660;7.082;2023-06-22T09:26:29;5.13;;;4.80;;
5085;SDS011;4715;51.660;7.082;2023-06-22T09:28:55;6.10;;;5.60;;
5085;SDS011;4715;51.660;7.082;2023-06-22T09:31:18;5.50;;;5.20;;
5085;SDS011;4715;51.660;7.082;2023-06-22T09:33:50;6.60;;;6.20;;
5085;SDS011;4715;51.660;7.082;2023-06-22T09:36:16;5.60;;;5.20;;
5085;SDS011;4715;51.660;7.082;2023-06-22T09:38:41;5.83;;;5.43;;
5085;SDS011;4715;51.660;7.082;2023-06-22T09:41:06;5.67;;;5.27;;
5085;SDS011;4715;51.660;7.082;2023-06-22T09:43:31;5.20;;;4.90;;
5085;SDS011;4715;51.660;7.082;2023-06-22T09:45:56;5.90;;;5.60;;
5085;SDS011;4715;51.660;7.082;2023-06-22T09:48:18;5.93;;;5.40;;
5085;SDS011;4715;51.660;7.082;2023-06-22T09:50:42;5.37;;;4.90;;
5085;SDS011;4715;51.660;7.082;2023-06-22T09:53:04;5.60;;;5.20;;
5085;SDS011;4715;51.660;7.082;2023-06-22T09:55:26;5.60;;;5.30;;
5085;SDS011;4715;51.660;7.082;2023-06-22T09:57:51;5.00;;;4.70;;
5085;SDS011;4715;51.660;7.082;2023-06-22T10:00:13;5.67;;;5.30;;
5085;SDS011;4715;51.660;7.082;2023-06-22T10:02:36;5.90;;;5.50;;
5085;SDS011;4715;51.660;7.082;2023-06-22T10:05:06;6.13;;;5.73;;
5085;SDS011;4715;51.660;7.082;2023-06-22T10:07:32;5.10;;;4.80;;
5085;SDS011;4715;51.660;7.082;2023-06-22T10:09:54;6.10;;;5.60;;
5085;SDS011;4715;51.660;7.082;2023-06-22T10:12:16;5.50;;;5.20;;
5085;SDS011;4715;51.660;7.082;2023-06-22T10:14:38;5.47;;;5.17;;
5085;SDS011;4715;51.660;7.082;2023-06-22T10:17:00;6.00;;;5.60;;
5085;SDS011;4715;51.660;7.082;2023-06-22T10:19:21;5.80;;;5.40;;
5085;SDS011;4715;51.660;7.082;2023-06-22T10:21:44;6.30;;;5.80;;
5085;SDS011;4715;51.660;7.082;2023-06-22T10:24:07;5.80;;;5.40;;
5085;SDS011;4715;51.660;7.082;2023-06-22T10:26:29;6.67;;;6.17;;
5085;SDS011;4715;51.660;7.082;2023-06-22T10:28:51;6.50;;;6.00;;
5085;SDS011;4715;51.660;7.082;2023-06-22T10:31:14;6.10;;;5.70;;
5085;SDS011;4715;51.660;7.082;2023-06-22T10:33:36;7.40;;;6.80;;
5085;SDS011;4715;51.660;7.082;2023-06-22T10:35:58;6.97;;;6.33;;
5085;SDS011;4715;51.660;7.082;2023-06-22T10:38:20;5.83;;;5.43;;
5085;SDS011;4715;51.660;7.082;2023-06-22T10:40:44;6.40;;;5.90;;
5085;SDS011;4715;51.660;7.082;2023-06-22T10:43:06;6.23;;;5.83;;
5085;SDS011;4715;51.660;7.082;2023-06-22T10:45:28;5.50;;;5.20;;
5085;SDS011;4715;51.660;7.082;2023-06-22T10:47:50;6.17;;;5.80;;
5085;SDS011;4715;51.660;7.082;2023-06-22T10:50:12;6.43;;;6.03;;
5085;SDS011;4715;51.660;7.082;2023-06-22T10:52:36;7.00;;;5.97;;
5085;SDS011;4715;51.660;7.082;2023-06-22T10:54:59;5.77;;;5.47;;
5085;SDS011;4715;51.660;7.082;2023-06-22T10:57:23;5.70;;;5.40;;
5085;SDS011;4715;51.660;7.082;2023-06-22T10:59:44;6.40;;;5.90;;
5085;SDS011;4715;51.660;7.082;2023-06-22T11:02:07;6.40;;;5.80;;
5085;SDS011;4715;51.660;7.082;2023-06-22T11:04:30;6.33;;;5.93;;
5085;SDS011;4715;51.660;7.082;2023-06-22T11:06:52;5.27;;;4.87;;
5085;SDS011;4715;51.660;7.082;2023-06-22T11:09:14;6.27;;;5.77;;
5085;SDS011;4715;51.660;7.082;2023-06-22T11:11:41;6.57;;;6.17;;
5085;SDS011;4715;51.660;7.082;2023-06-22T11:14:04;5.80;;;5.50;;
5085;SDS011;4715;51.660;7.082;2023-06-22T11:16:27;5.90;;;5.50;;
5085;SDS011;4715;51.660;7.082;2023-06-22T11:18:48;5.27;;;4.97;;
5085;SDS011;4715;51.660;7.082;2023-06-22T11:21:10;4.90;;;4.60;;
5085;SDS011;4715;51.660;7.082;2023-06-22T11:23:32;5.80;;;5.40;;
5085;SDS011;4715;51.660;7.082;2023-06-22T11:25:56;5.30;;;5.00;;
5085;SDS011;4715;51.660;7.082;2023-06-22T11:28:18;5.87;;;5.47;;
5085;SDS011;4715;51.660;7.082;2023-06-22T11:30:41;5.83;;;5.53;;
5085;SDS011;4715;51.660;7.082;2023-06-22T11:33:03;6.33;;;5.83;;
5085;SDS011;4715;51.660;7.082;2023-06-22T11:35:25;5.40;;;5.10;;
5085;SDS011;4715;51.660;7.082;2023-06-22T11:37:47;5.50;;;5.20;;
5085;SDS011;4715;51.660;7.082;2023-06-22T11:40:09;6.17;;;5.67;;
5085;SDS011;4715;51.660;7.082;2023-06-22T11:42:32;6.80;;;6.20;;
5085;SDS011;4715;51.660;7.082;2023-06-22T11:44:54;6.13;;;5.73;;
5085;SDS011;4715;51.660;7.082;2023-06-22T11:47:19;5.47;;;5.17;;
5085;SDS011;4715;51.660;7.082;2023-06-22T11:49:41;5.53;;;5.13;;
5085;SDS011;4715;51.660;7.082;2023-06-22T11:52:03;5.53;;;5.13;;
5085;SDS011;4715;51.660;7.082;2023-06-22T11:54:27;5.27;;;4.97;;
5085;SDS011;4715;51.660;7.082;2023-06-22T11:56:49;5.83;;;5.53;;
5085;SDS011;4715;51.660;7.082;2023-06-22T11:59:12;6.07;;;5.67;;
5085;SDS011;4715;51.660;7.082;2023-06-22T12:01:35;5.57;;;5.17;;
5085;SDS011;4715;51.660;7.082;2023-06-22T12:04:02;5.53;;;5.23;;
5085;SDS011;4715;51.660;7.082;2023-06-22T12:06:26;6.03;;;5.63;;
5085;SDS011;4715;51.660;7.082;2023-06-22T12:08:47;5.77;;;5.37;;
5085;SDS011;4715;51.660;7.082;2023-06-22T12:11:10;6.63;;;6.17;;
5085;SDS011;4715;51.660;7.082;2023-06-22T12:13:31;4.47;;;4.17;;
5085;SDS011;4715;51.660;7.082;2023-06-22T12:15:53;5.93;;;5.53;;
5085;SDS011;4715;51.660;7.082;2023-06-22T12:18:17;5.23;;;4.93;;
5085;SDS011;4715;51.660;7.082;2023-06-22T12:20:42;5.37;;;5.07;;
5085;SDS011;4715;51.660;7.082;2023-06-22T12:23:04;5.80;;;5.40;;
5085;SDS011;4715;51.660;7.082;2023-06-22T12:25:26;6.43;;;6.00;;
5085;SDS011;4715;51.660;7.082;2023-06-22T12:27:51;7.37;;;6.67;;
5085;SDS011;4715;51.660;7.082;2023-06-22T12:30:13;6.43;;;5.93;;
5085;SDS011;4715;51.660;7.082;2023-06-22T12:32:37;7.80;;;6.17;;
5085;SDS011;4715;51.660;7.082;2023-06-22T12:34:58;6.27;;;5.63;;
5085;SDS011;4715;51.660;7.082;2023-06-22T12:37:22;8.43;;;7.50;;
5085;SDS011;4715;51.660;7.082;2023-06-22T12:39:47;7.87;;;7.17;;
5085;SDS011;4715;51.660;7.082;2023-06-22T12:42:09;7.43;;;6.83;;
5085;SDS011;4715;51.660;7.082;2023-06-22T12:44:32;8.00;;;7.30;;
5085;SDS011;4715;51.660;7.082;2023-06-22T12:46:53;7.67;;;7.10;;
5085;SDS011;4715;51.660;7.082;2023-06-22T12:49:15;9.03;;;8.23;;
5085;SDS011;4715;51.660;7.082;2023-06-22T12:51:39;8.77;;;7.93;;
5085;SDS011;4715;51.660;7.082;2023-06-22T12:54:04;8.93;;;8.10;;
5085;SDS011;4715;51.660;7.082;2023-06-22T12:56:25;7.83;;;7.23;;
5085;SDS011;4715;51.660;7.082;2023-06-22T12:58:47;8.87;;;8.17;;
5085;SDS011;4715;51.660;7.082;2023-06-22T13:01:09;8.03;;;7.37;;
5085;SDS011;4715;51.660;7.082;2023-06-22T13:03:31;8.77;;;8.07;;
5085;SDS011;4715;51.660;7.082;2023-06-22T13:05:53;8.23;;;7.43;;
5085;SDS011;4715;51.660;7.082;2023-06-22T13:08:15;8.03;;;7.37;;
5085;SDS011;4715;51.660;7.082;2023-06-22T13:10:39;10.40;;;9.40;;
5085;SDS011;4715;51.660;7.082;2023-06-22T13:13:02;8.40;;;7.70;;
5085;SDS011;4715;51.660;7.082;2023-06-22T13:15:35;8.83;;;8.00;;
5085;SDS011;4715;51.660;7.082;2023-06-22T13:17:56;8.30;;;7.67;;
5085;SDS011;4715;51.660;7.082;2023-06-22T13:20:28;8.33;;;7.63;;
5085;SDS011;4715;51.660;7.082;2023-06-22T13:22:50;8.17;;;7.47;;
5085;SDS011;4715;51.660;7.082;2023-06-22T13:25:13;8.37;;;7.70;;
5085;SDS011;4715;51.660;7.082;2023-06-22T13:27:40;10.20;;;9.30;;
5085;SDS011;4715;51.660;7.082;2023-06-22T13:30:03;8.43;;;7.73;;
5085;SDS011;4715;51.660;7.082;2023-06-22T13:32:26;8.37;;;7.80;;
5085;SDS011;4715;51.660;7.082;2023-06-22T13:34:47;9.63;;;8.60;;
5085;SDS011;4715;51.660;7.082;2023-06-22T13:37:09;7.30;;;6.80;;
5085;SDS011;4715;51.660;7.082;2023-06-22T13:39:33;8.20;;;7.50;;
5085;SDS011;4715;51.660;7.082;2023-06-22T13:41:57;7.63;;;7.03;;
5085;SDS011;4715;51.660;7.082;2023-06-22T13:44:25;7.67;;;7.07;;
5085;SDS011;4715;51.660;7.082;2023-06-22T13:46:48;7.23;;;6.67;;
5085;SDS011;4715;51.660;7.082;2023-06-22T13:49:10;7.67;;;7.07;;
5085;SDS011;4715;51.660;7.082;2023-06-22T13:51:32;8.43;;;7.73;;
5085;SDS011;4715;51.660;7.082;2023-06-22T13:53:54;8.60;;;8.00;;
5085;SDS011;4715;51.660;7.082;2023-06-22T13:56:22;8.93;;;8.23;;
5085;SDS011;4715;51.660;7.082;2023-06-22T13:58:44;7.80;;;7.30;;
5085;SDS011;4715;51.660;7.082;2023-06-22T14:01:07;10.07;;;9.27;;
5085;SDS011;4715;51.660;7.082;2023-06-22T14:03:30;8.87;;;8.17;;
5085;SDS011;4715;51.660;7.082;2023-06-22T14:05:52;8.50;;;7.90;;
5085;SDS011;4715;51.660;7.082;2023-06-22T14:08:16;8.93;;;8.13;;
5085;SDS011;4715;51.660;7.082;2023-06-22T14:10:39;8.93;;;8.23;;
5085;SDS011;4715;51.660;7.082;2023-06-22T14:13:01;9.13;;;8.33;;
5085;SDS011;4715;51.660;7.082;2023-06-22T14:15:25;9.20;;;8.30;;
5085;SDS011;4715;51.660;7.082;2023-06-22T14:17:49;8.13;;;7.53;;
5085;SDS011;4715;51.660;7.082;2023-06-22T14:20:11;7.17;;;6.67;;
5085;SDS011;4715;51.660;7.082;2023-06-22T14:22:33;7.97;;;7.37;;
5085;SDS011;4715;51.660;7.082;2023-06-22T14:24:55;8.43;;;7.77;;
5085;SDS011;4715;51.660;7.082;2023-06-22T14:27:17;7.30;;;6.80;;
5085;SDS011;4715;51.660;7.082;2023-06-22T14:29:39;8.20;;;7.60;;
5085;SDS011;4715;51.660;7.082;2023-06-22T14:32:01;7.90;;;7.30;;
5085;SDS011;4715;51.660;7.082;2023-06-22T14:34:25;6.83;;;6.40;;
5085;SDS011;4715;51.660;7.082;2023-06-22T14:36:47;8.70;;;8.00;;
5085;SDS011;4715;51.660;7.082;2023-06-22T14:39:09;9.93;;;8.93;;
5085;SDS011;4715;51.660;7.082;2023-06-22T14:41:31;9.37;;;8.67;;
5085;SDS011;4715;51.660;7.082;2023-06-22T14:43:53;9.00;;;8.20;;
5085;SDS011;4715;51.660;7.082;2023-06-22T14:46:15;8.60;;;7.90;;
5085;SDS011;4715;51.660;7.082;2023-06-22T14:48:38;8.67;;;7.40;;
5085;SDS011;4715;51.660;7.082;2023-06-22T14:51:02;7.77;;;7.17;;